createdAt,value
2023-03-12T00:02:06.438Z,1.45
2023-03-12T00:06:10.817Z,1.13
2023-03-12T00:10:06.332Z,1.02
2023-03-12T00:14:06.333Z,1.28
2023-03-12T00:18:06.294Z,1.02
2023-03-12T00:22:06.523Z,1.14
2023-03-12T00:26:06.474Z,0.85
2023-03-12T00:30:06.429Z,1.37
2023-03-12T00:34:06.402Z,1.10
2023-03-12T00:38:06.367Z,1.20
2023-03-12T00:42:06.335Z,1.14
2023-03-12T00:46:06.291Z,0.98
2023-03-12T00:50:06.252Z,1.01
2023-03-12T00:54:06.220Z,1.23
2023-03-12T00:58:06.197Z,1.05
2023-03-12T01:02:06.277Z,1.06
2023-03-12T01:06:06.237Z,1.19
2023-03-12T01:10:06.195Z,1.28
2023-03-12T01:14:06.149Z,1.36
2023-03-12T01:18:06.138Z,1.35
2023-03-12T01:22:06.102Z,1.38
2023-03-12T01:26:06.040Z,0.88
2023-03-12T01:30:06.039Z,1.40
2023-03-12T01:34:05.976Z,1.04
2023-03-12T01:38:05.952Z,1.10
2023-03-12T01:42:06.078Z,1.51
2023-03-12T01:46:06.121Z,1.35
2023-03-12T01:50:06.005Z,1.27
2023-03-12T01:54:05.938Z,1.36
2023-03-12T01:58:05.901Z,1.42
2023-03-12T02:02:05.878Z,1.30
2023-03-12T02:06:05.833Z,1.40
2023-03-12T02:10:05.813Z,1.50
2023-03-12T02:14:05.794Z,1.06
2023-03-12T02:18:05.754Z,1.59
2023-03-12T02:22:05.726Z,1.26
2023-03-12T02:26:05.820Z,1.41
2023-03-12T02:30:05.803Z,1.15
2023-03-12T02:34:05.763Z,1.37
2023-03-12T02:38:05.699Z,1.44
2023-03-12T02:42:05.673Z,1.26
2023-03-12T02:46:05.655Z,1.21
2023-03-12T02:50:05.591Z,1.27
2023-03-12T02:54:05.579Z,1.54
2023-03-12T02:58:05.516Z,1.51
2023-03-12T03:02:05.494Z,1.62
2023-03-12T03:06:05.473Z,1.34
2023-03-12T03:10:05.450Z,1.39
2023-03-12T03:14:05.646Z,1.67
2023-03-12T03:18:05.863Z,1.52
2023-03-12T03:22:06.029Z,1.34
2023-03-12T03:26:06.216Z,1.67
2023-03-12T03:30:06.352Z,1.70
2023-03-12T03:34:06.576Z,1.32
2023-03-12T03:38:06.810Z,1.62
2023-03-12T03:42:06.925Z,1.37
2023-03-12T03:46:07.104Z,1.44
2023-03-12T03:50:07.170Z,1.47
2023-03-12T03:54:07.315Z,1.40
2023-03-12T03:58:07.424Z,1.55
2023-03-12T04:02:07.522Z,1.45
2023-03-12T04:06:07.661Z,1.33
2023-03-12T04:10:07.788Z,1.21
2023-03-12T04:14:07.754Z,1.60
2023-03-12T04:18:07.794Z,1.43
2023-03-12T04:22:07.727Z,1.49
2023-03-12T04:26:07.697Z,1.61
2023-03-12T04:30:07.703Z,1.98
2023-03-12T04:34:07.664Z,1.53
2023-03-12T04:38:07.709Z,1.35
2023-03-12T04:42:07.631Z,1.50
2023-03-12T04:46:07.657Z,1.65
2023-03-12T04:50:07.645Z,1.55
2023-03-12T04:54:07.634Z,1.52
2023-03-12T04:58:07.659Z,1.72
2023-03-12T05:02:07.593Z,1.51
2023-03-12T05:06:07.546Z,1.12
2023-03-12T05:10:07.559Z,1.54
2023-03-12T05:14:07.568Z,1.51
2023-03-12T05:18:07.509Z,1.47
2023-03-12T05:22:07.472Z,1.60
2023-03-12T05:26:07.516Z,1.58
2023-03-12T05:30:07.447Z,1.37
2023-03-12T05:34:07.458Z,1.57
2023-03-12T05:38:07.444Z,1.64
2023-03-12T05:42:07.454Z,1.73
2023-03-12T05:46:07.542Z,2.09
2023-03-12T05:50:07.448Z,1.76
2023-03-12T05:54:07.472Z,1.79
2023-03-12T05:58:07.475Z,1.87
2023-03-12T06:02:07.492Z,1.84
2023-03-12T06:06:07.413Z,1.40
2023-03-12T06:10:07.435Z,1.79
2023-03-12T06:14:07.446Z,1.56
2023-03-12T06:18:07.447Z,1.96
2023-03-12T06:22:07.430Z,1.56
2023-03-12T06:26:07.428Z,2.00
2023-03-12T06:30:07.400Z,1.71
2023-03-12T06:34:07.425Z,1.64
2023-03-12T06:38:07.417Z,2.02
2023-03-12T06:42:07.518Z,2.15
2023-03-12T06:46:07.527Z,1.90
2023-03-12T06:50:07.476Z,1.89
2023-03-12T06:54:07.432Z,1.68
2023-03-12T06:58:07.466Z,1.60
2023-03-12T07:02:07.474Z,2.03
2023-03-12T07:06:07.410Z,1.57
2023-03-12T07:10:07.427Z,1.74
2023-03-12T07:14:07.438Z,1.84
2023-03-12T07:18:07.392Z,1.88
2023-03-12T07:22:07.378Z,2.22
2023-03-12T07:26:07.522Z,1.99
2023-03-12T07:30:07.617Z,1.75
2023-03-12T07:34:07.749Z,1.95
2023-03-12T07:38:07.793Z,2.10
2023-03-12T07:42:07.810Z,1.57
2023-03-12T07:46:07.865Z,2.14
2023-03-12T07:50:08.086Z,1.86
2023-03-12T07:54:08.052Z,2.19
2023-03-12T07:58:08.077Z,2.28
2023-03-12T08:02:08.026Z,2.20
2023-03-12T08:06:08.021Z,1.61
2023-03-12T08:10:07.970Z,2.05
2023-03-12T08:14:07.875Z,1.80
2023-03-12T08:18:07.795Z,1.90
2023-03-12T08:22:07.769Z,2.22
2023-03-12T08:26:07.715Z,1.98
2023-03-12T08:30:07.840Z,2.26
2023-03-12T08:34:07.765Z,2.34
2023-03-12T08:38:07.748Z,2.15
2023-03-12T08:42:07.727Z,2.20
2023-03-12T08:46:07.713Z,1.93
2023-03-12T08:50:07.639Z,2.02
2023-03-12T08:54:07.587Z,1.80
2023-03-12T08:58:07.580Z,1.94
2023-03-12T09:02:07.574Z,1.78
2023-03-12T09:06:07.501Z,2.06
2023-03-12T09:10:07.591Z,2.05
2023-03-12T09:14:42.693Z,2.59
2023-03-12T09:18:08.490Z,2.16
2023-03-12T09:22:07.493Z,2.19
2023-03-12T09:26:07.707Z,2.12
2023-03-12T09:30:07.899Z,2.14
2023-03-12T09:34:08.143Z,2.16
2023-03-12T09:38:08.346Z,2.07
2023-03-12T09:42:08.585Z,2.23
2023-03-12T09:46:08.784Z,2.19
2023-03-12T09:50:08.950Z,2.11
2023-03-12T09:54:09.170Z,1.97
2023-03-12T09:58:09.161Z,2.32
2023-03-12T10:02:09.102Z,2.45
2023-03-12T10:06:09.042Z,2.29
2023-03-12T10:10:09.024Z,1.90
2023-03-12T10:14:08.984Z,1.71
2023-03-12T10:18:09.118Z,2.31
2023-03-12T10:22:08.914Z,2.36
2023-03-12T10:26:08.860Z,2.08
2023-03-12T10:30:08.838Z,2.31
2023-03-12T10:34:08.828Z,2.48
2023-03-12T10:38:08.764Z,2.67
2023-03-12T10:42:08.730Z,2.40
2023-03-12T10:46:08.790Z,2.31
2023-03-12T10:50:08.932Z,2.01
2023-03-12T10:54:09.107Z,2.31
2023-03-12T10:58:09.339Z,2.58
2023-03-12T11:02:09.564Z,2.19
2023-03-12T11:06:09.840Z,2.62
2023-03-12T11:10:09.761Z,2.54
2023-03-12T11:14:09.726Z,1.95
2023-03-12T11:18:09.662Z,2.02
2023-03-12T11:22:09.653Z,1.93
2023-03-12T11:26:09.590Z,1.89
2023-03-12T11:30:09.563Z,1.88
2023-03-12T11:34:09.555Z,2.01
2023-03-12T11:38:09.523Z,1.95
2023-03-12T11:42:09.514Z,1.79
2023-03-12T11:46:09.446Z,1.82
2023-03-12T11:50:09.392Z,3.39
2023-03-12T11:54:09.428Z,1.86
2023-03-12T11:58:09.435Z,1.77
2023-03-12T12:02:09.757Z,1.80
2023-03-12T12:06:09.750Z,1.82
2023-03-12T12:10:09.883Z,1.93
2023-03-12T12:14:10.033Z,1.71
2023-03-12T12:18:10.252Z,1.41
2023-03-12T12:22:10.384Z,1.43
2023-03-12T12:26:10.520Z,2.11
2023-03-12T12:30:10.664Z,1.79
2023-03-12T12:34:10.840Z,1.37
2023-03-12T12:38:10.967Z,1.75
2023-03-12T12:42:11.085Z,1.49
2023-03-12T12:46:11.233Z,1.49
2023-03-12T12:50:11.333Z,1.51
2023-03-12T12:54:11.419Z,1.61
2023-03-12T12:58:11.595Z,1.56
2023-03-12T13:02:11.678Z,1.73
2023-03-12T13:06:11.825Z,1.31
2023-03-12T13:10:11.899Z,1.79
2023-03-12T13:14:12.042Z,1.52
2023-03-12T13:18:12.098Z,1.38
2023-03-12T13:22:12.208Z,1.67
2023-03-12T13:26:12.253Z,1.49
2023-03-12T13:30:12.334Z,1.36
2023-03-12T13:34:12.431Z,1.49
2023-03-12T13:38:12.528Z,1.51
2023-03-12T13:42:12.654Z,1.55
2023-03-12T13:46:12.764Z,1.84
2023-03-12T13:50:12.852Z,1.37
2023-03-12T13:54:12.941Z,1.13
2023-03-12T13:58:13.126Z,1.23
2023-03-12T14:02:13.183Z,1.41
2023-03-12T14:06:13.307Z,1.42
2023-03-12T14:10:13.552Z,1.57
2023-03-12T14:14:13.561Z,1.47
2023-03-12T14:18:13.682Z,1.41
2023-03-12T14:22:13.758Z,1.24
2023-03-12T14:26:13.889Z,1.60
2023-03-12T14:30:13.975Z,1.46
2023-03-12T14:34:14.078Z,1.43
2023-03-12T14:38:14.104Z,1.35
2023-03-12T14:42:14.170Z,1.51
2023-03-12T14:46:14.217Z,1.44
2023-03-12T14:50:14.258Z,1.47
2023-03-12T14:54:14.333Z,1.65
2023-03-12T14:58:14.352Z,1.32
2023-03-12T15:02:14.476Z,1.66
2023-03-12T15:06:14.438Z,1.69
2023-03-12T15:10:14.490Z,1.66
2023-03-12T15:14:14.484Z,1.46
2023-03-12T15:18:14.473Z,1.49
2023-03-12T15:22:14.465Z,1.54
2023-03-12T15:26:14.472Z,1.50
2023-03-12T15:30:14.517Z,1.45
2023-03-12T15:34:14.600Z,1.58
2023-03-12T15:38:14.775Z,1.56
2023-03-12T15:42:15.074Z,1.19
2023-03-12T15:46:15.088Z,1.74
2023-03-12T15:50:14.916Z,1.50
2023-03-12T15:54:14.859Z,1.33
2023-03-12T15:58:14.851Z,1.72
2023-03-12T16:02:14.851Z,1.82
2023-03-12T16:06:14.766Z,1.36
2023-03-12T16:10:14.733Z,1.40
2023-03-12T16:14:14.666Z,1.42
2023-03-12T16:18:14.662Z,1.33
2023-03-12T16:22:14.643Z,1.50
2023-03-12T16:26:14.624Z,1.52
2023-03-12T16:30:14.524Z,1.68
2023-03-12T16:34:14.494Z,1.76
2023-03-12T16:38:14.476Z,1.37
2023-03-12T16:42:14.442Z,1.60
2023-03-12T16:46:14.445Z,1.74
2023-03-12T16:50:14.396Z,1.79
2023-03-12T16:54:14.371Z,1.89
2023-03-12T16:58:14.390Z,1.77
2023-03-12T17:02:14.440Z,2.00
2023-03-12T17:06:14.488Z,2.42
2023-03-12T17:10:14.605Z,1.59
2023-03-12T17:14:14.702Z,1.83
2023-03-12T17:18:14.815Z,2.37
2023-03-12T17:22:14.968Z,2.19
2023-03-12T17:26:15.069Z,2.23
2023-03-12T17:30:15.237Z,2.18
2023-03-12T17:34:15.380Z,2.06
2023-03-12T17:38:15.557Z,2.45
2023-03-12T17:42:15.702Z,2.93
2023-03-12T17:46:15.911Z,2.52
2023-03-12T17:50:16.069Z,2.21
2023-03-12T17:54:16.242Z,1.88
2023-03-12T17:58:16.441Z,1.82
2023-03-12T18:02:16.549Z,2.14
2023-03-12T18:06:19.358Z,2.20
2023-03-12T18:10:16.677Z,2.24
2023-03-12T18:14:16.630Z,2.01
2023-03-12T18:18:16.603Z,1.82
2023-03-12T18:22:16.544Z,2.34
2023-03-12T18:26:16.524Z,2.07
2023-03-12T18:30:16.483Z,2.05
2023-03-12T18:34:16.508Z,1.64
2023-03-12T18:38:16.424Z,2.37
2023-03-12T18:42:16.393Z,2.07
2023-03-12T18:46:16.420Z,2.14
2023-03-12T18:50:16.316Z,2.30
2023-03-12T18:54:16.342Z,2.25
2023-03-12T18:58:16.555Z,2.35
2023-03-12T19:02:16.775Z,2.50
2023-03-12T19:06:16.755Z,2.85
2023-03-12T19:10:16.710Z,2.72
2023-03-12T19:14:16.677Z,2.40
2023-03-12T19:18:16.633Z,2.55
2023-03-12T19:22:16.631Z,2.44
2023-03-12T19:26:16.545Z,2.71
2023-03-12T19:30:16.497Z,2.59
2023-03-12T19:34:16.492Z,2.96
2023-03-12T19:38:16.466Z,2.74
2023-03-12T19:42:16.492Z,3.20
2023-03-12T19:46:16.498Z,3.28
2023-03-12T19:50:16.398Z,2.67
2023-03-12T19:54:16.362Z,2.88
2023-03-12T19:58:16.345Z,3.05
2023-03-12T20:02:16.345Z,3.03
2023-03-12T20:06:16.252Z,3.32
2023-03-12T20:10:16.228Z,3.36
2023-03-12T20:14:16.189Z,3.65
2023-03-12T20:18:16.165Z,3.43
2023-03-12T20:22:16.231Z,3.28
2023-03-12T20:26:16.203Z,3.22
2023-03-12T20:30:16.164Z,3.42
2023-03-12T20:34:16.111Z,3.36
2023-03-12T20:38:16.088Z,3.42
2023-03-12T20:42:16.037Z,3.50
2023-03-12T20:46:16.067Z,3.68
2023-03-12T20:50:15.984Z,3.28
2023-03-12T20:54:15.941Z,3.27
2023-03-12T20:58:15.895Z,3.09
2023-03-12T21:02:15.902Z,3.42
2023-03-12T21:06:15.821Z,3.09
2023-03-12T21:10:15.804Z,3.82
2023-03-12T21:14:15.777Z,3.89
2023-03-12T21:18:15.731Z,3.75
2023-03-12T21:22:15.725Z,4.09
2023-03-12T21:26:15.641Z,3.97
2023-03-12T21:30:15.617Z,3.52
2023-03-12T21:34:15.575Z,3.42
2023-03-12T21:38:15.544Z,3.85
2023-03-12T21:42:15.509Z,3.83
2023-03-12T21:46:15.590Z,3.80
2023-03-12T21:50:15.426Z,4.09
2023-03-12T21:54:15.383Z,3.81
2023-03-12T21:58:15.358Z,4.35
2023-03-12T22:02:15.337Z,4.08
2023-03-12T22:06:15.300Z,3.98
2023-03-12T22:10:15.245Z,3.94
2023-03-12T22:14:15.213Z,3.89
2023-03-12T22:18:15.161Z,3.64
2023-03-12T22:22:15.125Z,3.69
2023-03-12T22:26:15.091Z,3.57
2023-03-12T22:30:15.109Z,4.07
2023-03-12T22:34:15.084Z,3.89
2023-03-12T22:38:15.159Z,3.74
2023-03-12T22:42:15.128Z,3.73
2023-03-12T22:46:15.114Z,4.14
2023-03-12T22:50:15.127Z,3.64
2023-03-12T22:54:15.090Z,4.05
2023-03-12T22:58:15.101Z,3.80
2023-03-12T23:02:15.164Z,3.74
2023-03-12T23:06:15.087Z,3.86
2023-03-12T23:10:15.068Z,4.23
2023-03-12T23:14:15.045Z,3.25
2023-03-12T23:18:15.039Z,3.57
2023-03-12T23:22:15.042Z,3.89
2023-03-12T23:26:14.996Z,3.43
2023-03-12T23:30:15.019Z,3.56
2023-03-12T23:34:15.007Z,4.05
2023-03-12T23:38:14.982Z,4.31
2023-03-12T23:42:15.009Z,3.56
2023-03-12T23:46:15.091Z,3.97
2023-03-12T23:50:14.982Z,4.03
2023-03-12T23:54:14.964Z,3.83
2023-03-12T23:58:14.967Z,3.91
